createdAt,value
2023-04-20T00:02:29.378Z,14.90
2023-04-20T00:07:32.785Z,10.30
2023-04-20T00:12:36.002Z,9.30
2023-04-20T00:17:39.731Z,9.90
2023-04-20T00:22:43.197Z,9.30
2023-04-20T00:27:45.955Z,8.90
2023-04-20T00:37:51.838Z,8.00
2023-04-20T00:42:54.862Z,9.30
2023-04-20T00:47:57.643Z,9.10
2023-04-20T00:53:02.499Z,9.60
2023-04-20T00:58:06.837Z,8.00
2023-04-20T01:03:09.807Z,8.50
2023-04-20T01:13:15.248Z,8.10
2023-04-20T01:18:20.071Z,10.20
2023-04-20T01:23:23.190Z,9.60
2023-04-20T01:33:29.925Z,10.90
2023-04-20T01:38:34.693Z,11.20
2023-04-20T01:43:39.652Z,10.10
2023-04-20T01:48:42.441Z,10.00
2023-04-20T01:53:45.811Z,10.90
2023-04-20T01:58:48.623Z,12.10
2023-04-20T02:03:51.548Z,9.90
2023-04-20T02:08:54.458Z,8.60
2023-04-20T02:13:57.539Z,9.50
2023-04-20T02:19:00.253Z,11.70
2023-04-20T02:24:03.087Z,10.00
2023-04-20T02:29:05.862Z,9.10
2023-04-20T02:34:09.711Z,9.60
2023-04-20T02:39:12.854Z,11.20
2023-04-20T02:44:15.714Z,9.70
2023-04-20T02:49:18.604Z,9.50
2023-04-20T02:59:24.661Z,8.60
2023-04-20T03:04:27.976Z,10.60
2023-04-20T03:09:31.218Z,10.00
2023-04-20T03:14:33.967Z,13.40
2023-04-20T03:19:36.920Z,12.20
2023-04-20T03:24:39.738Z,12.10
2023-04-20T03:29:42.453Z,11.60
2023-04-20T03:34:45.156Z,13.60
2023-04-20T03:39:47.926Z,13.30
2023-04-20T03:44:50.772Z,13.90
2023-04-20T03:49:53.498Z,14.20
2023-04-20T03:54:56.253Z,14.70
2023-04-20T03:59:59.051Z,13.20
2023-04-20T04:05:01.895Z,13.40
2023-04-20T04:10:06.041Z,12.70
2023-04-20T04:15:09.669Z,16.60
2023-04-20T04:20:12.629Z,14.70
2023-04-20T04:25:15.453Z,13.20
2023-04-20T04:30:20.104Z,11.80
2023-04-20T04:35:24.039Z,15.80
2023-04-20T04:40:26.824Z,13.50
2023-04-20T04:45:29.525Z,13.60
2023-04-20T04:50:32.304Z,13.30
2023-04-20T04:55:35.261Z,14.90
2023-04-20T05:00:38.464Z,13.90
2023-04-20T05:10:43.809Z,11.70
2023-04-20T05:15:46.522Z,10.80
2023-04-20T05:20:49.320Z,10.50
2023-04-20T05:25:52.034Z,10.50
2023-04-20T05:35:58.555Z,11.30
2023-04-20T05:46:04.258Z,11.00
2023-04-20T05:51:07.060Z,11.10
2023-04-20T05:56:09.925Z,11.10
2023-04-20T06:01:15.198Z,12.30
2023-04-20T06:06:28.872Z,11.70
2023-04-20T06:11:32.901Z,10.40
2023-04-20T06:16:36.497Z,11.40
2023-04-20T06:21:41.800Z,10.90
2023-04-20T06:26:46.168Z,11.70
2023-04-20T06:31:53.657Z,12.00
2023-04-20T06:36:58.121Z,12.40
2023-04-20T06:42:03.140Z,14.20
2023-04-20T06:47:06.147Z,13.40
2023-04-20T06:57:12.040Z,11.60
2023-04-20T07:02:15.142Z,12.40
2023-04-20T07:07:17.956Z,11.70
2023-04-20T07:12:20.696Z,10.10
2023-04-20T07:17:27.314Z,10.90
2023-04-20T07:22:30.248Z,10.20
2023-04-20T07:32:41.631Z,9.40
2023-04-20T07:37:44.505Z,9.60
2023-04-20T07:42:47.260Z,9.70
2023-04-20T07:47:52.429Z,10.20
2023-04-20T07:52:55.770Z,9.90
2023-04-20T07:57:58.657Z,10.30
2023-04-20T08:13:08.163Z,10.10
2023-04-20T08:18:11.656Z,9.60
2023-04-20T08:23:14.403Z,10.20
2023-04-20T08:33:36.431Z,10.20
2023-04-20T08:38:39.179Z,9.10
2023-04-20T08:43:41.944Z,9.20
2023-04-20T08:53:49.696Z,8.70
2023-04-20T08:58:52.760Z,8.90
2023-04-20T09:03:55.871Z,8.60
2023-04-20T09:08:59.050Z,8.70
2023-04-20T09:14:10.149Z,8.30
2023-04-20T09:19:14.555Z,9.40
2023-04-20T09:24:17.881Z,7.70
2023-04-20T09:29:23.471Z,8.90
2023-04-20T09:34:26.376Z,9.00
2023-04-20T09:39:30.565Z,8.80
2023-04-20T09:44:34.110Z,7.80
2023-04-20T09:49:36.893Z,7.00
2023-04-20T09:54:40.536Z,8.40
2023-04-20T09:59:44.619Z,8.00
2023-04-20T10:04:57.668Z,7.80
2023-04-20T10:10:15.685Z,8.40
2023-04-20T10:15:19.145Z,7.10
2023-04-20T10:20:27.614Z,6.40
2023-04-20T10:25:31.624Z,7.70
2023-04-20T10:30:34.608Z,9.00
2023-04-20T10:35:50.780Z,6.40
2023-04-20T10:40:53.799Z,6.00
2023-04-20T10:45:56.603Z,6.70
2023-04-20T10:51:09.481Z,7.10
2023-04-20T10:56:12.384Z,6.70
2023-04-20T11:01:15.280Z,6.30
2023-04-20T11:06:18.193Z,6.30
2023-04-20T11:11:27.636Z,6.50
2023-04-20T11:16:44.321Z,6.80
2023-04-20T11:21:52.429Z,7.20
2023-04-20T11:26:56.147Z,6.70
2023-04-20T11:32:00.897Z,7.60
2023-04-20T11:37:11.018Z,8.10
2023-04-20T11:42:13.850Z,7.70
2023-04-20T11:47:17.502Z,7.60
2023-04-20T11:52:21.924Z,7.90
2023-04-20T11:57:25.734Z,8.00
2023-04-20T12:02:28.605Z,8.60
2023-04-20T12:07:31.740Z,7.50
2023-04-20T12:12:34.523Z,7.80
2023-04-20T12:17:37.306Z,8.30
2023-04-20T12:22:40.127Z,7.70
2023-04-20T12:27:42.880Z,7.80
2023-04-20T12:32:45.771Z,8.50
2023-04-20T12:37:48.741Z,8.90
2023-04-20T12:42:51.472Z,9.10
2023-04-20T12:47:56.306Z,9.10
2023-04-20T12:53:00.641Z,8.70
2023-04-20T12:58:03.355Z,8.90
2023-04-20T13:03:06.210Z,8.70
2023-04-20T13:08:09.086Z,8.20
2023-04-20T13:13:11.924Z,9.40
2023-04-20T13:18:15.537Z,10.20
2023-04-20T13:23:18.516Z,9.70
2023-04-20T13:28:21.242Z,9.90
2023-04-20T13:33:23.987Z,9.40
2023-04-20T13:38:26.770Z,9.60
2023-04-20T13:43:29.466Z,10.00
2023-04-20T13:48:32.209Z,9.70
2023-04-20T13:53:34.929Z,10.20
2023-04-20T13:58:37.747Z,9.90
2023-04-20T14:03:41.881Z,10.20
2023-04-20T14:08:44.669Z,11.40
2023-04-20T14:13:47.472Z,10.60
2023-04-20T14:18:50.203Z,11.40
2023-04-20T14:23:54.651Z,11.00
2023-04-20T14:28:57.392Z,10.10
2023-04-20T14:34:00.934Z,10.70
2023-04-20T14:39:03.684Z,11.10
2023-04-20T14:44:06.477Z,19.80
2023-04-20T14:49:09.219Z,11.20
2023-04-20T14:54:11.925Z,11.20
2023-04-20T14:59:14.816Z,13.90
2023-04-20T15:04:17.971Z,10.10
2023-04-20T15:09:20.991Z,10.00
2023-04-20T15:14:23.706Z,11.20
2023-04-20T15:19:26.476Z,11.00
2023-04-20T15:24:29.251Z,9.80
2023-04-20T15:29:36.215Z,11.90
2023-04-20T15:34:39.124Z,11.30
2023-04-20T15:39:45.042Z,10.20
2023-04-20T15:44:47.912Z,11.00
2023-04-20T15:49:50.852Z,10.60
2023-04-20T15:54:53.721Z,9.40
2023-04-20T15:59:56.515Z,10.70
2023-04-20T16:04:59.545Z,10.20
2023-04-20T16:10:03.059Z,10.90
2023-04-20T16:15:06.489Z,12.30
2023-04-20T16:20:09.919Z,11.00
2023-04-20T16:25:19.140Z,11.90
2023-04-20T16:30:22.024Z,11.10
2023-04-20T16:35:24.960Z,10.30
2023-04-20T16:40:28.586Z,11.60
2023-04-20T16:45:33.099Z,10.80
2023-04-20T16:50:38.051Z,16.80
2023-04-20T16:55:41.688Z,15.20
2023-04-20T17:00:45.417Z,10.60
2023-04-20T17:05:49.255Z,16.00
2023-04-20T17:10:52.122Z,10.20
2023-04-20T17:15:54.883Z,10.90
2023-04-20T17:20:58.520Z,12.20
2023-04-20T17:26:02.827Z,14.60
2023-04-20T17:31:05.629Z,13.70
2023-04-20T17:36:08.386Z,14.10
2023-04-20T17:46:13.958Z,16.30
2023-04-20T17:51:16.841Z,12.30
2023-04-20T18:01:22.303Z,10.30
2023-04-20T18:11:29.110Z,13.60
2023-04-20T18:16:31.925Z,14.00
2023-04-20T18:21:34.809Z,36.40
2023-04-20T18:26:37.954Z,22.40
2023-04-20T18:36:44.039Z,28.10
2023-04-20T18:41:46.774Z,24.60
2023-04-20T18:46:49.502Z,26.30
2023-04-20T18:51:52.336Z,16.60
2023-04-20T18:56:55.073Z,14.90
2023-04-20T19:01:58.053Z,19.30
2023-04-20T19:07:00.754Z,22.40
2023-04-20T19:12:03.610Z,26.30
2023-04-20T19:17:07.664Z,32.80
2023-04-20T19:22:10.462Z,28.20
2023-04-20T19:27:13.334Z,32.30
2023-04-20T19:32:16.684Z,29.20
2023-04-20T19:37:19.485Z,48.70
2023-04-20T19:42:22.988Z,46.50
2023-04-20T19:47:25.844Z,39.40
2023-04-20T19:52:28.663Z,39.50
2023-04-20T19:57:31.704Z,36.70
2023-04-20T20:02:34.603Z,35.20
2023-04-20T20:07:37.489Z,28.60
2023-04-20T20:12:40.253Z,28.00
2023-04-20T20:17:45.301Z,23.30
2023-04-20T20:22:50.331Z,28.90
2023-04-20T20:27:53.252Z,32.20
2023-04-20T20:32:58.826Z,33.50
2023-04-20T20:38:06.297Z,35.80
2023-04-20T20:43:09.222Z,28.80
2023-04-20T20:48:11.968Z,24.30
2023-04-20T20:53:17.554Z,19.40
2023-04-20T20:58:20.622Z,18.10
2023-04-20T21:03:23.510Z,18.10
2023-04-20T21:08:26.431Z,18.40
2023-04-20T21:13:29.166Z,18.50
2023-04-20T21:18:32.616Z,20.30
2023-04-20T21:23:36.037Z,17.40
2023-04-20T21:28:38.794Z,18.40
2023-04-20T21:33:41.522Z,14.80
2023-04-20T21:38:44.360Z,16.20
2023-04-20T21:43:47.387Z,19.10
2023-04-20T21:48:51.213Z,17.70
2023-04-20T21:53:53.980Z,18.70
2023-04-20T21:58:56.725Z,19.10
2023-04-20T22:03:59.638Z,18.20
2023-04-20T22:09:03.076Z,20.60
2023-04-20T22:14:06.278Z,21.50
2023-04-20T22:24:11.748Z,21.10
2023-04-20T22:29:14.449Z,20.80
2023-04-20T22:34:17.181Z,21.00
2023-04-20T22:39:20.178Z,22.70
2023-04-20T22:44:23.161Z,19.60
2023-04-20T22:49:25.913Z,25.10
2023-04-20T22:54:28.631Z,24.70
2023-04-20T22:59:31.427Z,20.20
2023-04-20T23:04:34.197Z,16.60
2023-04-20T23:09:40.015Z,14.40
2023-04-20T23:14:43.768Z,16.00
2023-04-20T23:19:47.380Z,16.90
2023-04-20T23:24:50.646Z,22.40
2023-04-20T23:34:55.968Z,18.70
2023-04-20T23:39:58.681Z,18.20
2023-04-20T23:45:01.544Z,19.60
2023-04-20T23:50:04.608Z,20.10
2023-04-20T23:55:08.984Z,20.60
